Time;durP1;ratioP1;P1;durP2;ratioP2;P2;SDS_P1;SDS_P2;PMS_P1;PMS_P2;Temp;Humidity;BMP_temperature;BMP_pressure;BME280_temperature;BME280_humidity;BME280_pressure;Samples;Min_cycle;Max_cycle;Signal;HPM_P1;HPM_P2
2022/06/04 00:01:30;;;;;;;8.35;5.15;;;;;;;25.55;65.27;101580.41;5076642;28;19916;-80
2022/06/04 00:03:56;;;;;;;6.50;5.20;;;;;;;25.47;65.64;101571.44;5078271;28;20040;-80
2022/06/04 00:06:21;;;;;;;;;;;;;;;25.63;64.72;101577.75;5067926;28;20025;-81
2022/06/04 00:08:47;;;;;;;12.77;5.55;;;;;;;25.57;64.83;101575.97;5063447;28;20321;-80
2022/06/04 00:16:40;;;;;;;9.93;5.05;;;;;;;25.63;64.45;101583.97;5075573;28;20094;-81
2022/06/04 00:19:06;;;;;;;;;;;;;;;25.59;65.25;101574.19;5061515;28;20025;-80
2022/06/04 00:21:31;;;;;;;8.20;5.20;;;;;;;25.54;64.67;101565.22;5074008;28;19916;-80
2022/06/04 00:23:57;;;;;;;;;;;;;;;25.67;64.58;101579.56;5078098;28;20021;-80
2022/06/04 00:26:22;;;;;;;9.00;5.60;;;;;;;25.57;64.62;101575.97;5078869;28;19974;-80
2022/06/04 00:28:48;;;;;;;;;;;;;;;25.64;65.04;101579.56;5066591;28;20032;-80
2022/06/04 00:31:15;;;;;;;8.48;4.70;;;;;;;25.63;65.13;101578.63;5072780;28;20393;-81
2022/06/04 00:33:41;;;;;;;6.97;5.32;;;;;;;25.60;64.70;101581.31;5066370;28;20039;-80
2022/06/04 00:36:06;;;;;;;;;;;;;;;25.64;65.02;101584.91;5061661;28;20033;-81
2022/06/04 00:38:33;;;;;;;7.78;5.40;;;;;;;25.63;65.09;101580.41;5067635;28;19969;-81
2022/06/04 00:41:25;;;;;;;8.30;5.60;;;;;;;25.59;64.99;101572.41;5083542;28;20036;-80
2022/06/04 00:44:05;;;;;;;6.85;5.20;;;;;;;25.59;65.10;101580.41;5069971;28;20063;-80
2022/06/04 00:46:40;;;;;;;9.95;5.85;;;;;;;25.58;65.17;101573.25;5062442;28;20024;-80
2022/06/04 00:49:07;;;;;;;10.15;5.50;;;;;;;25.56;65.14;101566.13;5062656;28;20103;-80
2022/06/04 00:51:33;;;;;;;6.32;5.35;;;;;;;25.57;64.77;101551.88;5078267;28;20044;-80
2022/06/04 00:53:59;;;;;;;7.95;5.57;;;;;;;25.58;64.81;101554.53;5069174;28;20028;-79
2022/06/04 00:56:28;;;;;;;;;;;;;;;25.58;65.78;101550.97;5070148;28;20089;-80
2022/06/04 00:59:32;;;;;;;7.95;5.13;;;;;;;25.58;65.52;101554.53;5059951;28;20297;-81
2022/06/04 01:02:30;;;;;;;7.22;5.10;;;;;;;25.59;65.66;101550.13;5074572;28;20086;-80
2022/06/04 01:05:28;;;;;;;6.90;5.43;;;;;;;25.53;65.68;101528.69;5071303;28;20081;-80
2022/06/04 01:08:13;;;;;;;9.40;5.75;;;;;;;25.60;65.32;101543.84;5063713;28;20032;-80
2022/06/04 01:11:05;;;;;;;8.45;5.75;;;;;;;25.56;65.52;101542.94;5071428;28;20100;-81
2022/06/04 01:13:59;;;;;;;8.93;5.45;;;;;;;25.62;65.66;101541.19;5067075;28;20089;-81
2022/06/04 01:16:34;;;;;;;7.10;5.53;;;;;;;25.59;65.29;101542.97;5053941;28;20117;-81
2022/06/04 01:19:06;;;;;;;12.25;6.25;;;;;;;25.59;65.44;101532.28;5067557;28;21152;-80
2022/06/04 01:22:16;;;;;;;10.27;5.90;;;;;;;25.62;65.50;101528.72;5057970;28;20083;-80
2022/06/04 01:25:03;;;;;;;7.60;5.53;;;;;;;25.60;65.56;101525.13;5065010;28;20525;-80
2022/06/04 01:27:34;;;;;;;7.85;5.68;;;;;;;25.50;66.25;101525.97;5068782;28;20048;-80
2022/06/04 01:30:23;;;;;;;7.85;5.25;;;;;;;25.54;65.82;101533.13;5085047;28;20028;-80
2022/06/04 01:33:06;;;;;;;6.70;5.20;;;;;;;25.56;65.35;101532.25;5071358;28;20033;-81
2022/06/04 01:35:40;;;;;;;7.55;5.80;;;;;;;25.60;65.42;101519.78;5076769;28;20028;-80
2022/06/04 01:38:20;;;;;;;7.32;5.75;;;;;;;25.62;65.54;101535.84;5068130;28;20048;-80
2022/06/04 01:41:05;;;;;;;8.90;5.68;;;;;;;25.62;65.52;101531.38;5070558;28;20475;-81
2022/06/04 01:43:46;;;;;;;9.75;5.53;;;;;;;25.51;65.57;101514.41;5064386;28;20025;-81
2022/06/04 01:46:17;;;;;;;9.77;5.43;;;;;;;25.44;66.71;101516.13;5074639;28;20047;-81
2022/06/04 01:48:45;;;;;;;7.07;5.88;;;;;;;25.47;66.10;101505.47;5056650;28;20561;-81
2022/06/04 01:51:15;;;;;;;9.18;5.68;;;;;;;25.46;66.35;101530.41;5075398;28;20401;-81
2022/06/04 01:53:41;;;;;;;9.15;5.50;;;;;;;25.45;66.44;101530.41;5056201;28;20032;-81
2022/06/04 01:56:13;;;;;;;7.05;5.50;;;;;;;25.52;65.98;101532.22;5060663;28;20031;-80
2022/06/04 01:58:44;;;;;;;7.90;5.75;;;;;;;25.53;65.52;101505.50;5079064;28;20090;-81
2022/06/04 02:01:18;;;;;;;7.43;5.50;;;;;;;25.53;65.93;101520.66;5066772;28;20086;-81
2022/06/04 02:03:49;;;;;;;7.55;5.65;;;;;;;25.56;65.24;101529.56;5067936;28;20024;-81
2022/06/04 02:06:21;;;;;;;10.73;5.90;;;;;;;25.55;65.51;101537.59;5071429;28;20020;-81
2022/06/04 02:08:49;;;;;;;9.48;5.72;;;;;;;25.55;65.45;101532.25;5066568;28;20630;-81
2022/06/04 02:11:17;;;;;;;10.55;6.10;;;;;;;25.57;65.19;101533.16;5076942;28;20109;-81
2022/06/04 02:13:46;;;;;;;8.73;5.65;;;;;;;25.57;65.79;101530.50;5078361;28;20036;-81
2022/06/04 02:16:23;;;;;;;7.97;6.03;;;;;;;25.58;65.11;101535.81;5071855;28;20052;-81
2022/06/04 02:18:48;;;;;;;;;;;;;;;25.60;65.41;101525.13;5070570;28;20028;-81
2022/06/04 02:21:16;;;;;;;12.52;8.02;;;;;;;25.54;65.71;101527.78;5071144;28;20313;-81
2022/06/04 02:23:43;;;;;;;12.38;7.43;;;;;;;25.54;65.89;101541.16;5076776;28;20024;-81
2022/06/04 02:26:09;;;;;;;12.98;8.32;;;;;;;25.49;66.23;101541.13;5069909;28;20038;-81
2022/06/04 02:28:36;;;;;;;9.32;7.93;;;;;;;25.53;65.28;101548.28;5080812;28;20115;-81
2022/06/04 02:31:21;;;;;;;16.83;9.02;;;;;;;25.52;65.65;101545.59;5084032;28;20500;-81
2022/06/04 02:34:01;;;;;;;11.55;8.60;;;;;;;25.51;66.47;101543.81;5069447;28;20028;-81
2022/06/04 02:36:35;;;;;;;15.18;9.50;;;;;;;25.49;65.44;101521.53;5074397;28;20467;-81
2022/06/04 02:39:12;;;;;;;11.98;9.57;;;;;;;25.56;65.41;101553.63;5065282;28;20025;-81
2022/06/04 02:41:46;;;;;;;14.45;10.25;;;;;;;25.43;65.50;101541.09;5074978;28;20096;-81
2022/06/04 02:44:27;;;;;;;16.35;10.77;;;;;;;25.54;65.15;101571.47;5065933;28;20090;-81
2022/06/04 02:47:05;;;;;;;14.15;9.93;;;;;;;25.52;65.31;101562.53;5072343;28;20029;-81
2022/06/04 02:49:39;;;;;;;15.80;10.40;;;;;;;25.47;65.01;101547.38;5068643;28;20024;-80
2022/06/04 02:52:09;;;;;;;15.50;11.25;;;;;;;25.45;65.03;101550.03;5088094;28;20028;-80
2022/06/04 02:54:39;;;;;;;15.65;10.70;;;;;;;25.48;65.23;101558.06;5073784;28;20033;-81
2022/06/04 02:57:05;;;;;;;11.88;10.05;;;;;;;25.43;65.48;101545.56;5073650;28;20032;-81
2022/06/04 02:59:34;;;;;;;13.18;9.98;;;;;;;25.48;65.36;101562.50;5063534;28;20133;-81
2022/06/04 03:02:01;;;;;;;13.55;10.07;;;;;;;25.38;66.04;101556.25;5067774;28;20028;-82
2022/06/04 03:04:28;;;;;;;15.77;11.73;;;;;;;25.35;65.19;101561.56;5079523;28;20467;-81
2022/06/04 03:06:54;;;;;;;15.18;10.88;;;;;;;25.36;65.34;101558.91;5078629;28;20028;-81
2022/06/04 03:09:20;;;;;;;14.60;10.90;;;;;;;25.44;65.11;101564.28;5074114;28;20028;-81
2022/06/04 03:11:48;;;;;;;13.88;11.07;;;;;;;25.47;65.10;101566.97;5072993;28;20027;-81
2022/06/04 03:14:15;;;;;;;16.45;11.32;;;;;;;25.36;64.85;101558.91;5091054;28;20105;-81
2022/06/04 03:16:45;;;;;;;16.60;12.07;;;;;;;25.42;65.29;101566.06;5072064;28;20544;-82
2022/06/04 03:19:12;;;;;;;17.02;11.30;;;;;;;25.48;65.47;101563.41;5087977;28;20119;-81
2022/06/04 03:21:39;;;;;;;14.77;11.27;;;;;;;25.26;65.26;101551.72;5080516;28;20121;-81
2022/06/04 03:24:06;;;;;;;16.05;11.35;;;;;;;25.41;65.23;101571.41;5073291;28;20036;-80
2022/06/04 03:26:32;;;;;;;16.77;11.10;;;;;;;25.41;65.24;101563.38;5073275;28;20039;-80
2022/06/04 03:28:57;;;;;;;;;;;;;;;25.46;65.42;101577.66;5072967;28;20100;-80
2022/06/04 03:31:28;;;;;;;16.20;12.02;;;;;;;25.46;65.06;101567.84;5072362;28;19952;-80
2022/06/04 03:33:54;;;;;;;17.80;13.48;;;;;;;25.44;65.09;101568.72;5079680;28;20035;-80
2022/06/04 03:36:21;;;;;;;17.70;12.88;;;;;;;25.38;65.26;101559.81;5061945;28;20054;-80
2022/06/04 03:38:48;;;;;;;20.98;14.15;;;;;;;25.33;65.11;101550.84;5082106;28;20111;-80
2022/06/04 03:41:13;;;;;;;20.80;15.05;;;;;;;25.39;65.25;101552.66;5066956;28;20044;-80
2022/06/04 03:43:39;;;;;;;;;;;;;;;25.48;65.32;101559.84;5073664;28;20024;-80
2022/06/04 03:46:04;;;;;;;21.08;15.05;;;;;;;25.48;65.17;101557.16;5067446;28;20348;-81
2022/06/04 03:48:30;;;;;;;;;;;;;;;25.51;65.43;101557.19;5068160;28;20394;-81
2022/06/04 03:50:56;;;;;;;24.52;15.18;;;;;;;25.47;65.58;101566.09;5076414;28;19912;-80
2022/06/04 03:53:22;;;;;;;;;;;;;;;25.50;65.47;101558.06;5073117;28;20052;-81
2022/06/04 03:55:47;;;;;;;16.08;12.85;;;;;;;25.37;65.53;101551.75;5078969;28;19935;-80
2022/06/04 03:58:13;;;;;;;18.75;13.13;;;;;;;25.43;65.67;101565.16;5077541;28;20120;-81
2022/06/04 04:00:39;;;;;;;;;;;;;;;25.48;65.67;101554.50;5077154;28;20028;-81
2022/06/04 04:03:12;;;;;;;19.20;13.18;;;;;;;25.45;66.13;101559.84;5072217;28;20455;-80
2022/06/04 04:05:56;;;;;;;19.30;13.68;;;;;;;25.37;66.10;101543.75;5078194;28;20025;-81
2022/06/04 04:08:24;;;;;;;16.00;13.02;;;;;;;25.41;66.17;101566.06;5067589;28;20481;-80
2022/06/04 04:10:50;;;;;;;17.67;12.98;;;;;;;25.39;65.81;101542.84;5072859;28;20020;-81
2022/06/04 04:13:16;;;;;;;;;;;;;;;25.44;65.69;101550.91;5071115;28;20035;-80
2022/06/04 04:15:42;;;;;;;16.58;12.50;;;;;;;25.45;65.75;101549.16;5070450;28;19923;-80
2022/06/04 04:18:08;;;;;;;;;;;;;;;25.49;65.93;101548.28;5070716;28;20025;-80
2022/06/04 04:20:36;;;;;;;17.23;12.65;;;;;;;25.41;65.99;101550.00;5076132;28;19920;-81
2022/06/04 04:23:02;;;;;;;17.88;12.40;;;;;;;25.37;66.21;101541.97;5077302;28;20024;-81
2022/06/04 04:25:29;;;;;;;15.32;11.98;;;;;;;25.37;66.31;101549.97;5079275;28;20033;-81
2022/06/04 04:27:55;;;;;;;17.05;12.35;;;;;;;25.45;66.24;101560.72;5073416;28;20043;-81
2022/06/04 04:30:24;;;;;;;16.15;11.85;;;;;;;25.42;66.50;101565.16;5070994;28;20040;-81
2022/06/04 04:32:50;;;;;;;16.50;11.55;;;;;;;25.44;66.27;101564.28;5072625;28;20520;-81
2022/06/04 04:35:19;;;;;;;14.40;11.35;;;;;;;25.43;65.76;101574.97;5071100;28;20063;-81
2022/06/04 04:37:44;;;;;;;15.05;11.75;;;;;;;25.47;65.85;101580.34;5076765;28;20032;-81
2022/06/04 04:40:11;;;;;;;;;;;;;;;25.48;66.15;101584.78;5079794;28;20024;-82
2022/06/04 04:42:36;;;;;;;13.73;11.23;;;;;;;25.42;65.93;101590.16;5073660;28;19912;-82
2022/06/04 04:45:02;;;;;;;;;;;;;;;25.51;66.02;101597.31;5085859;28;20512;-81
2022/06/04 04:47:28;;;;;;;17.25;11.90;;;;;;;25.45;66.60;101592.81;5075782;28;20313;-81
2022/06/04 04:49:53;;;;;;;;;;;;;;;25.45;66.35;101598.16;5084242;28;20026;-82
2022/06/04 04:52:19;;;;;;;13.02;10.93;;;;;;;25.38;66.61;101591.91;5072412;28;20381;-81
2022/06/04 04:54:45;;;;;;;;;;;;;;;25.49;66.57;101601.75;5079334;28;20410;-82
2022/06/04 04:57:10;;;;;;;14.73;11.10;;;;;;;25.42;66.64;101584.78;5068644;28;19913;-82
2022/06/04 04:59:37;;;;;;;;;;;;;;;25.50;66.49;101596.41;5078871;28;20098;-81
2022/06/04 05:02:03;;;;;;;13.68;10.77;;;;;;;25.48;66.75;101598.16;5068118;28;19912;-81
2022/06/04 05:04:28;;;;;;;;;;;;;;;25.41;67.27;101600.81;5071815;28;20036;-82
2022/06/04 05:06:54;;;;;;;12.98;10.65;;;;;;;25.42;66.55;101587.47;5074709;28;19959;-82
2022/06/04 05:09:19;;;;;;;;;;;;;;;25.54;66.49;101616.03;5058103;28;20029;-82
2022/06/04 05:11:45;;;;;;;14.50;10.32;;;;;;;25.38;66.51;101607.94;5076346;28;19912;-82
2022/06/04 05:14:11;;;;;;;16.02;10.50;;;;;;;25.39;66.71;101593.66;5074764;28;20512;-81
2022/06/04 05:16:37;;;;;;;;;;;;;;;25.54;66.25;101613.38;5064125;28;20021;-82
2022/06/04 05:19:04;;;;;;;14.52;10.27;;;;;;;25.49;66.80;101624.03;5073381;28;19924;-82
2022/06/04 05:21:43;;;;;;;13.43;10.60;;;;;;;25.52;66.78;101632.06;5079767;28;20439;-81
2022/06/04 05:24:18;;;;;;;12.00;10.02;;;;;;;25.52;66.42;101626.72;5072437;28;20057;-82
2022/06/04 05:26:44;;;;;;;12.65;9.57;;;;;;;25.46;66.43;101628.47;5079332;28;20107;-82
2022/06/04 05:29:10;;;;;;;;;;;;;;;25.55;66.36;101624.09;5064801;28;20123;-81
2022/06/04 05:31:37;;;;;;;13.25;10.20;;;;;;;25.56;66.39;101624.97;5072148;28;20325;-83
2022/06/04 05:34:02;;;;;;;13.65;10.75;;;;;;;25.51;66.73;101629.41;5063462;28;20035;-82
2022/06/04 05:36:28;;;;;;;;;;;;;;;25.53;67.12;101623.19;5058784;28;20029;-83
2022/06/04 05:38:54;;;;;;;11.30;9.77;;;;;;;25.41;67.35;101612.41;5070694;28;19913;-83
2022/06/04 05:41:20;;;;;;;;;;;;;;;25.50;67.53;101638.31;5062771;28;20112;-83
2022/06/04 05:43:49;;;;;;;13.30;9.85;;;;;;;25.57;67.00;101637.47;5066095;28;19957;-88
2022/06/04 05:46:15;;;;;;;12.68;10.00;;;;;;;25.28;66.81;101592.72;5068810;28;20543;-84
2022/06/04 05:48:43;;;;;;;12.05;9.40;;;;;;;25.55;67.18;101649.94;5072641;28;20033;-87
2022/06/04 05:51:10;;;;;;;11.70;9.82;;;;;;;25.59;66.88;101641.94;5062865;28;20031;-84
2022/06/04 05:53:36;;;;;;;13.95;10.02;;;;;;;25.41;67.13;101615.06;5065064;28;20087;-84
2022/06/04 05:56:02;;;;;;;;;;;;;;;25.62;67.05;101643.75;5065694;28;20032;-84
2022/06/04 05:58:28;;;;;;;10.98;9.50;;;;;;;25.56;67.12;101622.28;5066488;28;20003;-84
2022/06/04 06:01:00;;;;;;;;;;;;;;;25.66;66.48;101633.97;5080879;28;20024;-84
2022/06/04 06:03:25;;;;;;;14.32;8.93;;;;;;;25.53;67.03;101624.97;5070078;28;20321;-83
2022/06/04 06:05:51;;;;;;;;;;;;;;;25.57;66.55;101635.69;5072942;28;20494;-84
2022/06/04 06:08:26;;;;;;;10.85;8.38;;;;;;;25.48;66.28;101594.59;5062000;28;19909;-84
2022/06/04 06:10:51;;;;;;;9.90;8.65;;;;;;;25.63;66.12;101621.44;5062842;28;20501;-83
2022/06/04 06:13:17;;;;;;;;;;;;;;;25.67;65.83;101615.22;5065262;28;20020;-83
2022/06/04 06:15:43;;;;;;;13.70;8.70;;;;;;;25.46;65.68;101583.91;5070112;28;19916;-83
2022/06/04 06:18:08;;;;;;;;;;;;;;;25.60;66.07;101616.97;5072781;28;20028;-83
2022/06/04 06:20:35;;;;;;;9.35;8.35;;;;;;;25.30;67.17;101590.06;5069631;28;19916;-84
2022/06/04 06:23:01;;;;;;;13.13;8.30;;;;;;;25.42;65.75;101589.22;5066912;28;20025;-83
2022/06/04 06:25:28;;;;;;;12.65;8.43;;;;;;;25.55;66.54;101629.44;5070124;28;20020;-83
2022/06/04 06:27:54;;;;;;;12.95;8.68;;;;;;;25.52;66.08;101620.50;5078112;28;20020;-83
2022/06/04 06:30:20;;;;;;;11.52;7.97;;;;;;;25.52;65.78;101618.69;5063748;28;20020;-83
2022/06/04 06:32:46;;;;;;;;;;;;;;;25.60;66.19;101640.16;5053887;28;20478;-83
2022/06/04 06:35:12;;;;;;;10.52;7.88;;;;;;;25.62;65.93;101630.34;5059800;28;19969;-83
2022/06/04 06:37:40;;;;;;;11.75;7.47;;;;;;;25.58;65.25;101623.19;5057447;28;20032;-82
2022/06/04 06:40:06;;;;;;;12.18;7.65;;;;;;;25.62;65.24;101619.66;5068653;28;20032;-82
2022/06/04 06:42:32;;;;;;;10.27;7.40;;;;;;;25.60;65.36;101616.09;5054321;28;20021;-82
2022/06/04 06:44:58;;;;;;;;;;;;;;;25.73;65.02;101628.63;5051547;28;20078;-85
2022/06/04 06:47:23;;;;;;;10.23;7.65;;;;;;;25.64;65.40;101615.22;5053248;28;19908;-84
2022/06/04 06:49:49;;;;;;;9.27;7.50;;;;;;;25.58;66.38;101626.75;5050183;28;20104;-84
2022/06/04 06:52:16;;;;;;;9.18;7.82;;;;;;;25.59;65.85;101628.56;5067092;28;20025;-83
2022/06/04 06:54:42;;;;;;;10.57;6.80;;;;;;;25.69;65.49;101648.22;5054471;28;20021;-84
2022/06/04 06:57:10;;;;;;;9.60;7.25;;;;;;;25.72;65.16;101652.72;5067498;28;20100;-84
2022/06/04 06:59:37;;;;;;;10.65;7.57;;;;;;;25.77;65.46;101649.16;5053011;28;20025;-84
2022/06/04 07:02:03;;;;;;;8.80;7.35;;;;;;;25.71;65.40;101634.88;5051118;28;20036;-83
2022/06/04 07:04:29;;;;;;;10.73;7.38;;;;;;;25.72;65.68;101637.56;5052767;28;20021;-83
2022/06/04 07:06:57;;;;;;;;;;;;;;;25.77;65.57;101654.50;5056424;28;20024;-84
2022/06/04 07:09:35;;;;;;;9.48;7.35;;;;;;;25.58;65.91;101634.78;5076650;28;20286;-85
2022/06/04 07:12:01;;;;;;;8.60;7.30;;;;;;;25.75;66.11;101653.59;5082628;28;20021;-84
2022/06/04 07:14:27;;;;;;;9.43;7.53;;;;;;;25.77;65.86;101653.63;5071329;28;20133;-83
2022/06/04 07:16:54;;;;;;;11.07;7.22;;;;;;;25.63;65.70;101629.47;5065014;28;20098;-83
2022/06/04 07:19:22;;;;;;;8.95;6.95;;;;;;;25.77;66.58;101656.31;5060948;28;20027;-84
2022/06/04 07:21:49;;;;;;;9.52;7.10;;;;;;;25.76;65.58;101655.41;5079008;28;20024;-84
2022/06/04 07:24:14;;;;;;;12.05;7.18;;;;;;;25.70;66.32;101641.13;5069502;28;20402;-83
2022/06/04 07:26:40;;;;;;;;;;;;;;;25.69;66.75;101640.19;5061758;28;20021;-84
2022/06/04 07:29:07;;;;;;;9.90;6.82;;;;;;;25.72;65.77;101632.19;5068818;28;19944;-84
2022/06/04 07:31:33;;;;;;;9.25;6.57;;;;;;;25.65;65.73;101608.06;5069644;28;20024;-84
2022/06/04 07:33:59;;;;;;;8.65;7.15;;;;;;;25.76;66.53;101630.41;5069580;28;20119;-87
2022/06/04 07:36:34;;;;;;;;;;;;;;;25.65;64.96;101634.81;5069473;28;20458;-84
2022/06/04 07:39:01;;;;;;;16.48;7.35;;;;;;;25.66;64.76;101631.28;5065718;28;19916;-84
2022/06/04 07:41:32;;;;;;;12.90;7.47;;;;;;;25.62;65.01;101622.34;5067324;28;20109;-85
2022/06/04 07:43:58;;;;;;;9.65;6.82;;;;;;;25.73;65.09;101636.66;5061865;28;20028;-84
2022/06/04 07:46:25;;;;;;;14.70;7.10;;;;;;;25.67;64.35;101639.28;5067752;28;20112;-85
2022/06/04 07:48:51;;;;;;;12.07;6.40;;;;;;;25.66;63.04;101637.53;5071330;28;20016;-85
2022/06/04 07:51:17;;;;;;;;;;;;;;;25.66;61.60;101625.94;5070112;28;20100;-84
2022/06/04 07:53:43;;;;;;;8.70;5.90;;;;;;;25.51;61.14;101624.94;5087796;28;19919;-85
2022/06/04 07:56:13;;;;;;;;;;;;;;;25.60;61.31;101629.47;5069879;28;20572;-86
2022/06/04 07:58:39;;;;;;;14.13;6.75;;;;;;;25.65;61.82;101646.41;5070752;28;20313;-84
2022/06/04 08:01:05;;;;;;;8.20;5.53;;;;;;;25.67;62.31;101644.63;5066792;28;20112;-84
2022/06/04 08:03:33;;;;;;;13.32;6.53;;;;;;;25.70;62.73;101641.13;5070845;28;20025;-84
2022/06/04 08:05:59;;;;;;;11.18;5.95;;;;;;;25.50;64.15;101611.56;5071949;28;20405;-85
2022/06/04 08:08:24;;;;;;;9.15;6.57;;;;;;;25.34;65.07;101590.09;5066960;28;20028;-85
2022/06/04 08:10:50;;;;;;;;;;;;;;;25.70;65.24;101635.75;5069207;28;20397;-85
2022/06/04 08:13:25;;;;;;;12.43;6.13;;;;;;;25.65;65.84;101629.47;5073074;28;19969;-85
2022/06/04 08:15:55;;;;;;;13.82;6.72;;;;;;;25.68;67.63;101637.53;5065983;28;20068;-85
2022/06/04 08:18:21;;;;;;;11.52;6.43;;;;;;;25.49;67.98;101609.78;5070099;28;20110;-85
2022/06/04 08:20:46;;;;;;;;;;;;;;;25.73;67.47;101630.41;5068743;28;20040;-85
2022/06/04 08:23:12;;;;;;;8.43;6.07;;;;;;;25.77;67.63;101627.75;5085282;28;19908;-84
2022/06/04 08:25:44;;;;;;;11.32;6.88;;;;;;;25.78;68.38;101620.63;5073598;28;20066;-85
2022/06/04 08:28:10;;;;;;;9.88;6.30;;;;;;;25.79;67.09;101615.28;5061436;28;20025;-85
2022/06/04 08:30:36;;;;;;;8.75;6.07;;;;;;;25.86;67.08;101626.91;5055237;28;20020;-83
2022/06/04 08:33:02;;;;;;;9.43;6.32;;;;;;;25.88;67.52;101632.28;5059100;28;20233;-84
2022/06/04 08:35:28;;;;;;;11.02;6.70;;;;;;;25.80;67.15;101616.16;5072881;28;20029;-86
2022/06/04 08:37:54;;;;;;;;;;;;;;;25.95;67.51;101627.00;5068792;28;20028;-84
2022/06/04 08:40:26;;;;;;;10.18;6.97;;;;;;;25.94;67.65;101624.31;5074654;28;19956;-85
2022/06/04 08:43:17;;;;;;;11.73;6.68;;;;;;;25.82;67.72;101594.78;5070228;28;20021;-85
2022/06/04 08:45:44;;;;;;;9.45;6.22;;;;;;;25.86;68.12;101607.28;5083874;28;20036;-85
2022/06/04 08:48:30;;;;;;;13.68;6.35;;;;;;;25.97;68.26;101622.53;5078754;28;20039;-86
2022/06/04 08:50:56;;;;;;;10.13;6.28;;;;;;;25.61;68.42;101545.63;5055436;28;20105;-86
2022/06/04 08:53:25;;;;;;;9.90;6.40;;;;;;;26.00;68.22;101608.28;5058879;28;20111;-85
2022/06/04 08:58:59;;;;;;;9.57;6.55;;;;;;;26.03;68.58;101605.59;5063392;28;20035;-84
2022/06/04 09:01:58;;;;;;;10.57;6.75;;;;;;;25.94;68.39;101585.03;5067374;28;20036;-85
2022/06/04 09:04:48;;;;;;;13.60;6.50;;;;;;;26.10;68.29;101609.19;5075664;28;20032;-85
2022/06/04 09:07:24;;;;;;;9.30;6.55;;;;;;;26.04;68.62;101590.44;5066051;28;20446;-85
2022/06/04 09:10:09;;;;;;;13.48;6.70;;;;;;;26.11;68.66;101606.50;5060134;28;20032;-85
2022/06/04 09:12:49;;;;;;;11.88;6.80;;;;;;;26.09;69.90;101605.63;5050138;28;20068;-86
2022/06/04 09:15:31;;;;;;;11.23;6.32;;;;;;;26.06;70.31;101592.25;5066074;28;20037;-85
2022/06/04 09:17:59;;;;;;;11.73;6.97;;;;;;;26.14;70.45;101603.88;5076403;28;20517;-85
2022/06/04 09:20:39;;;;;;;13.27;7.10;;;;;;;26.16;70.86;101602.09;5076092;28;20039;-84
2022/06/04 09:23:06;;;;;;;19.95;7.70;;;;;;;26.15;71.61;101599.41;5086758;28;20085;-84
2022/06/04 09:25:55;;;;;;;10.80;7.30;;;;;;;26.14;70.78;101606.53;5070662;28;20021;-85
2022/06/04 09:28:43;;;;;;;14.55;6.95;;;;;;;26.14;71.21;101605.63;5058846;28;20024;-84
2022/06/04 09:31:08;;;;;;;12.70;7.22;;;;;;;26.20;71.24;101609.25;5051954;28;20100;-85
2022/06/04 09:33:34;;;;;;;;;;;;;;;26.27;71.10;101606.56;5066174;28;20055;-85
2022/06/04 09:36:00;;;;;;;13.98;7.40;;;;;;;26.19;72.46;101599.41;5057680;28;19987;-84
2022/06/04 09:38:26;;;;;;;;;;;;;;;26.23;72.15;101594.06;5060989;28;20502;-84
2022/06/04 09:41:18;;;;;;;15.63;8.23;;;;;;;26.19;73.14;101598.53;5086369;28;19916;-84
2022/06/04 09:43:45;;;;;;;16.50;8.10;;;;;;;26.19;73.25;101599.41;5070483;28;20029;-84
2022/06/04 09:46:13;;;;;;;12.23;7.78;;;;;;;26.20;73.72;101593.19;5067754;28;20119;-83
2022/06/04 09:48:43;;;;;;;13.38;8.07;;;;;;;26.21;74.19;101596.75;5070148;28;20047;-84
2022/06/04 09:51:24;;;;;;;12.90;8.20;;;;;;;26.19;74.03;101591.38;5063807;28;20025;-84
2022/06/04 09:54:03;;;;;;;16.05;9.00;;;;;;;26.20;74.91;101595.84;5077656;28;20066;-83
2022/06/04 09:56:38;;;;;;;11.63;8.68;;;;;;;26.11;74.64;101590.44;5070531;28;20407;-83
2022/06/04 09:59:28;;;;;;;14.95;9.35;;;;;;;26.12;74.28;101586.91;5080189;28;20039;-83
2022/06/04 10:02:02;;;;;;;23.73;9.27;;;;;;;26.23;75.06;101608.34;5067223;28;20034;-84
2022/06/04 10:04:47;;;;;;;14.02;8.90;;;;;;;26.24;74.88;101595.84;5076527;28;20111;-84
2022/06/04 10:07:18;;;;;;;16.30;9.80;;;;;;;26.16;74.96;101578.00;5070896;28;20504;-83
2022/06/04 10:09:56;;;;;;;16.27;9.35;;;;;;;26.32;74.31;101596.75;5068981;28;20020;-84
2022/06/04 10:15:49;;;;;;;13.10;9.25;;;;;;;26.36;74.73;101611.94;5059305;28;20121;-84
2022/06/04 10:18:18;;;;;;;14.38;8.95;;;;;;;26.39;74.50;101609.25;5060077;28;20033;-83
2022/06/04 10:20:55;;;;;;;23.08;9.05;;;;;;;26.31;74.25;101590.53;5066769;28;20025;-84
2022/06/04 10:23:21;;;;;;;15.23;9.18;;;;;;;26.44;74.16;101610.19;5061836;28;20024;-84
2022/06/04 10:26:27;;;;;;;12.50;9.25;;;;;;;26.45;74.07;101614.63;5061596;28;20078;-84
2022/06/04 10:28:53;;;;;;;14.88;9.52;;;;;;;26.47;73.63;101620.88;5051682;28;20111;-84
2022/06/04 10:31:51;;;;;;;13.85;9.15;;;;;;;26.10;74.15;101559.22;5071045;28;20116;-84
2022/06/04 10:34:38;;;;;;;12.43;9.05;;;;;;;26.47;74.03;101625.38;5059953;28;20041;-84
2022/06/04 10:37:17;;;;;;;;;;;;;;;26.48;73.96;101622.69;5051530;28;20025;-83
2022/06/04 10:40:07;;;;;;;14.48;9.10;;;;;;;26.47;74.56;101612.84;5074355;28;19931;-83
2022/06/04 10:42:36;;;;;;;11.80;8.55;;;;;;;26.48;74.36;101614.66;5065105;28;20127;-83
2022/06/04 10:45:26;;;;;;;15.40;9.05;;;;;;;26.47;74.03;101602.13;5061297;28;20033;-82
2022/06/04 10:47:56;;;;;;;11.75;9.13;;;;;;;26.49;74.29;101607.50;5080428;28;20105;-82
2022/06/04 10:50:22;;;;;;;15.73;9.25;;;;;;;26.49;74.44;101605.72;5070836;28;20052;-82
2022/06/04 10:53:00;;;;;;;12.23;9.00;;;;;;;26.49;74.16;101597.69;5056520;28;20020;-83
2022/06/04 10:55:45;;;;;;;14.88;10.05;;;;;;;26.43;74.24;101594.09;5061121;28;20040;-82
2022/06/04 10:58:28;;;;;;;12.45;9.05;;;;;;;26.50;73.31;101595.88;5050968;28;20025;-82
2022/06/04 11:01:02;;;;;;;14.27;9.25;;;;;;;26.50;72.45;101595.88;5059734;28;20560;-81
2022/06/04 11:03:45;;;;;;;11.40;8.63;;;;;;;26.57;72.25;101606.66;5079183;28;20448;-81
2022/06/04 11:06:19;;;;;;;12.63;9.07;;;;;;;26.57;71.59;101598.63;5063005;28;20026;-81
2022/06/04 11:08:56;;;;;;;10.73;8.73;;;;;;;26.62;71.70;101612.00;5065448;28;20044;-82
2022/06/04 11:11:40;;;;;;;12.85;8.93;;;;;;;26.64;71.60;101609.34;5049494;28;20516;-81
2022/06/04 11:14:13;;;;;;;16.05;9.23;;;;;;;26.56;71.28;101590.53;5059854;28;20032;-81
2022/06/04 11:16:52;;;;;;;12.00;9.18;;;;;;;26.64;71.14;101604.88;5068589;28;20541;-81
2022/06/04 11:19:29;;;;;;;12.63;8.57;;;;;;;26.56;71.23;101582.50;5056133;28;20028;-82
2022/06/04 11:22:19;;;;;;;13.13;9.10;;;;;;;26.59;70.91;101594.16;5067646;28;20446;-82
2022/06/04 11:24:56;;;;;;;10.68;9.05;;;;;;;26.51;70.71;101570.91;5053292;28;20016;-82
2022/06/04 11:27:28;;;;;;;12.07;8.95;;;;;;;26.60;70.82;101582.53;5060503;28;20024;-83
2022/06/04 11:29:54;;;;;;;13.00;9.02;;;;;;;26.64;70.38;101588.78;5081207;28;20020;-82
2022/06/04 11:32:30;;;;;;;12.15;9.18;;;;;;;26.57;70.47;101577.19;5085181;28;20032;-82
2022/06/04 11:34:55;;;;;;;11.93;8.90;;;;;;;26.64;70.43;101579.88;5080192;28;20055;-81
2022/06/04 11:37:46;;;;;;;13.25;9.05;;;;;;;26.66;70.42;101581.66;5073241;28;20020;-82
2022/06/04 11:40:26;;;;;;;13.07;8.50;;;;;;;26.68;70.39;101573.63;5069616;28;20056;-82
2022/06/04 11:42:57;;;;;;;12.98;9.35;;;;;;;26.62;70.47;101561.09;5059831;28;20021;-82
2022/06/04 11:45:54;;;;;;;11.10;8.65;;;;;;;26.69;70.19;101568.28;5076652;28;20103;-83
2022/06/04 11:48:29;;;;;;;13.18;8.93;;;;;;;26.70;70.30;101567.38;5064200;28;20071;-83
2022/06/04 11:51:30;;;;;;;11.38;8.70;;;;;;;26.70;70.20;101562.00;5064878;28;20486;-83
2022/06/04 11:54:11;;;;;;;11.98;8.45;;;;;;;26.68;70.26;101560.22;5030649;28;20037;-83
2022/06/04 11:56:51;;;;;;;13.90;8.90;;;;;;;26.72;70.34;101575.41;5065627;28;20033;-83
2022/06/04 11:59:39;;;;;;;13.00;8.98;;;;;;;26.73;70.30;101564.72;5069846;28;20043;-83
2022/06/04 12:02:20;;;;;;;10.80;8.82;;;;;;;26.70;70.14;101566.47;5067236;28;20024;-83